This is the latest recevied weather packets stored in our database for station/object SP8PUB-10. If no packets are shown the sender has not sent any weather packets the latest 10 day(s).
| Time | Temp. | Humidity | Pressure | Rain* | Wind** | Luminosity | Snow |
|---|---|---|---|---|---|---|---|
| 1778163044 | 24.44° C | 55% | 1011.8 hPa | - | - | - | - |
| 1778162144 | 24.44° C | 55% | 1011.7 hPa | - | - | - | - |
| 1778161244 | 25° C | 53% | 1011.8 hPa | - | - | - | - |
| 1778160344 | 25° C | 54% | 1011.8 hPa | - | - | - | - |
| 1778159443 | 25° C | 54% | 1011.7 hPa | - | - | - | - |
| 1778158543 | 25° C | 54% | 1011.9 hPa | - | - | - | - |
| 1778157643 | 24.44° C | 54% | 1011.8 hPa | - | - | - | - |
| 1778156743 | 25° C | 53% | 1011.8 hPa | - | - | - | - |
| 1778155843 | 25° C | 52% | 1011.8 hPa | - | - | - | - |
| 1778154943 | 24.44° C | 53% | 1012 hPa | - | - | - | - |
| 1778154043 | 25° C | 52% | 1012 hPa | - | - | - | - |
| 1778153143 | 25.56° C | 52% | 1012.1 hPa | - | - | - | - |
| 1778152243 | 25.56° C | 52% | 1012 hPa | - | - | - | - |
| 1778151343 | 25° C | 53% | 1011.9 hPa | - | - | - | - |
| 1778150442 | 25.56° C | 52% | 1012 hPa | - | - | - | - |
| 1778149542 | 25° C | 52% | 1011.9 hPa | - | - | - | - |
| 1778148642 | 25° C | 52% | 1011.7 hPa | - | - | - | - |
| 1778147742 | 25° C | 52% | 1011.7 hPa | - | - | - | - |
| 1778146842 | 24.44° C | 54% | 1011.6 hPa | - | - | - | - |
| 1778145942 | 24.44° C | 58% | 1011.6 hPa | - | - | - | - |
| 1778145042 | 23.89° C | 59% | 1011.5 hPa | - | - | - | - |
| 1778144142 | 22.78° C | 65% | 1011.2 hPa | - | - | - | - |
| 1778143242 | 22.78° C | 66% | 1011.3 hPa | - | - | - | - |
| 1778142341 | 21.11° C | 71% | 1011.2 hPa | - | - | - | - |
| 1778141441 | 20° C | 75% | 1011.3 hPa | - | - | - | - |
* Rain since midnight (hover to see other rain measurements)
** Current wind speed in m/s (hover to see current wind gust speed)